PWSweather.com
Personal Weather Stations
Station Observations
CW4114
Near Downtown, Rogers City, MI 49779

Near DowntownRogers City, MI 49779

Lat: 45.417443, Lon: -83.810642

Elevation: 605

Station Type: Davis Vantage Pro2 w/Solar

Latest ConditionsUpdated 12:10:57 PM EDT Thursday, Mar 23, 2017
Currently Today's Max Today's Min Today's Average
Temperature 37.9°F3.3°C 37.9°F3.3°C 18.9°F-7.3°C 23.5°F-4.7°C
Dew Point 18.0°F-7.8°C 20.1°F-6.6°C 14.0°F-10.0°C 16.4°F-8.7°C
Winds 4.9 mph SW7.9 kmh SW 8.7 mph S14.0 kmh S - 3.4 mph 5.5 kmh
Wind Gusts 8.5 mph13.7 kmh 14.8 mph23.8 kmh - -
Humidity 44% 86% 44% 75%
Pressure 30.49 in1032.5 mb 30.56 in1034.9 mb 30.49 in1032.5 mb -
Hour Temp Dew Point Humidity Winds Wind Gusts Pressure Precip Precip Rate Daily Precip Total
12:10 PM 37.9°F3.3°C 18.0°F-7.8°C 44% 4.9 mph SW7.9 kmh SW 8.5 mph13.7 kmh 30.49 in1032.5 mb 0.00 in0.0 mm 0.00 in0.0 mm 0.00 in0.0 mm
12:05 PM 37.8°F3.2°C 18.3°F-7.6°C 45% 5.1 mph SSW8.2 kmh SSW 12.8 mph20.6 kmh 30.49 in1032.5 mb 0.00 in0.0 mm 0.00 in0.0 mm 0.00 in0.0 mm
12:00 PM 37.2°F2.9°C 18.3°F-7.6°C 46% 8.7 mph S14.0 kmh S 12.8 mph20.6 kmh 30.49 in1032.5 mb 0.00 in0.0 mm 0.00 in0.0 mm 0.00 in0.0 mm
11:55 AM 37.0°F2.8°C 18.7°F-7.4°C 47% 6.7 mph SSE10.8 kmh SSE 11.6 mph18.7 kmh 30.49 in1032.5 mb 0.00 in0.0 mm 0.00 in0.0 mm 0.00 in0.0 mm
11:50 AM 36.5°F2.5°C 18.1°F-7.7°C 47% 7.4 mph SSW11.9 kmh SSW 14.8 mph23.8 kmh 30.49 in1032.5 mb 0.00 in0.0 mm 0.00 in0.0 mm 0.00 in0.0 mm
11:45 AM 36.5°F2.5°C 18.1°F-7.7°C 47% 5.1 mph SSW8.2 kmh SSW 10.5 mph16.9 kmh 30.49 in1032.5 mb 0.00 in0.0 mm 0.00 in0.0 mm 0.00 in0.0 mm
11:40 AM 36.5°F2.5°C 19.2°F-7.1°C 49% 5.1 mph S8.2 kmh S 11.6 mph18.7 kmh 30.50 in1032.8 mb 0.00 in0.0 mm 0.00 in0.0 mm 0.00 in0.0 mm
11:35 AM 36.3°F2.4°C 18.5°F-7.5°C 48% 3.4 mph SW5.5 kmh SW 10.5 mph16.9 kmh 30.50 in1032.8 mb 0.00 in0.0 mm 0.00 in0.0 mm 0.00 in0.0 mm
11:30 AM 36.7°F2.6°C 18.9°F-7.3°C 48% 4.0 mph SSW6.4 kmh SSW 8.5 mph13.7 kmh 30.50 in1032.8 mb 0.00 in0.0 mm 0.00 in0.0 mm 0.00 in0.0 mm
11:25 AM 36.3°F2.4°C 19.0°F-7.2°C 49% 4.0 mph SSW6.4 kmh SSW 11.6 mph18.7 kmh 30.50 in1032.8 mb 0.00 in0.0 mm 0.00 in0.0 mm 0.00 in0.0 mm
11:20 AM 36.3°F2.4°C 19.0°F-7.2°C 49% 5.8 mph SW9.3 kmh SW 8.5 mph13.7 kmh 30.50 in1032.8 mb 0.00 in0.0 mm 0.00 in0.0 mm 0.00 in0.0 mm
11:15 AM 36.3°F2.4°C 19.0°F-7.2°C 49% 6.3 mph SW10.1 kmh SW 10.5 mph16.9 kmh 30.50 in1032.8 mb 0.00 in0.0 mm 0.00 in0.0 mm 0.00 in0.0 mm
11:10 AM 36.1°F2.3°C 18.9°F-7.3°C 49% 4.9 mph WSW7.9 kmh WSW 14.8 mph23.8 kmh 30.50 in1032.8 mb 0.00 in0.0 mm 0.00 in0.0 mm 0.00 in0.0 mm
11:05 AM 35.6°F2.0°C 18.3°F-7.6°C 49% 5.6 mph SW9.0 kmh SW 10.5 mph16.9 kmh 30.50 in1032.8 mb 0.00 in0.0 mm 0.00 in0.0 mm 0.00 in0.0 mm
11:00 AM 36.0°F2.2°C 19.0°F-7.2°C 50% 5.4 mph S8.7 kmh S 9.6 mph15.4 kmh 30.50 in1032.8 mb 0.00 in0.0 mm 0.00 in0.0 mm 0.00 in0.0 mm
10:55 AM 35.8°F2.1°C 19.0°F-7.2°C 50% 3.8 mph SSE6.1 kmh SSE 10.5 mph16.9 kmh 30.51 in1033.2 mb 0.00 in0.0 mm 0.00 in0.0 mm 0.00 in0.0 mm
10:50 AM 36.0°F2.2°C 20.1°F-6.6°C 52% 4.9 mph SW7.9 kmh SW 7.4 mph11.9 kmh 30.52 in1033.5 mb 0.00 in0.0 mm 0.00 in0.0 mm 0.00 in0.0 mm
10:45 AM 35.2°F1.8°C 18.9°F-7.3°C 51% 4.0 mph SW6.4 kmh SW 6.3 mph10.1 kmh 30.52 in1033.5 mb 0.00 in0.0 mm 0.00 in0.0 mm 0.00 in0.0 mm
10:40 AM 35.1°F1.7°C 19.6°F-6.9°C 53% 3.6 mph WSW5.8 kmh WSW 6.3 mph10.1 kmh 30.52 in1033.5 mb 0.00 in0.0 mm 0.00 in0.0 mm 0.00 in0.0 mm
10:35 AM 34.7°F1.5°C 19.4°F-7.0°C 53% 2.2 mph S3.5 kmh S 6.3 mph10.1 kmh 30.52 in1033.5 mb 0.00 in0.0 mm 0.00 in0.0 mm 0.00 in0.0 mm
10:30 AM 34.0°F1.1°C 19.6°F-6.9°C 55% 2.9 mph SW4.7 kmh SW 4.3 mph6.9 kmh 30.52 in1033.5 mb 0.00 in0.0 mm 0.00 in0.0 mm 0.00 in0.0 mm
10:25 AM 33.4°F0.8°C 19.4°F-7.0°C 56% 2.9 mph SSW4.7 kmh SSW 8.5 mph13.7 kmh 30.52 in1033.5 mb 0.00 in0.0 mm 0.00 in0.0 mm 0.00 in0.0 mm
10:20 AM 33.1°F0.6°C 19.6°F-6.9°C 57% 4.3 mph SW6.9 kmh SW 8.5 mph13.7 kmh 30.52 in1033.5 mb 0.00 in0.0 mm 0.00 in0.0 mm 0.00 in0.0 mm
10:15 AM 32.4°F0.2°C 18.5°F-7.5°C 56% 4.5 mph SW7.2 kmh SW 9.6 mph15.4 kmh 30.52 in1033.5 mb 0.00 in0.0 mm 0.00 in0.0 mm 0.00 in0.0 mm
10:10 AM 31.8°F-0.1°C 18.7°F-7.4°C 58% 4.9 mph SW7.9 kmh SW 8.5 mph13.7 kmh 30.53 in1033.9 mb 0.00 in0.0 mm 0.00 in0.0 mm 0.00 in0.0 mm
10:05 AM 30.6°F-0.8°C 18.7°F-7.4°C 61% 3.1 mph SW5.0 kmh SW 5.4 mph8.7 kmh 30.53 in1033.9 mb 0.00 in0.0 mm 0.00 in0.0 mm 0.00 in0.0 mm
10:00 AM 30.4°F-0.9°C 18.1°F-7.7°C 60% 2.9 mph S4.7 kmh S 5.4 mph8.7 kmh 30.53 in1033.9 mb 0.00 in0.0 mm 0.00 in0.0 mm 0.00 in0.0 mm
09:55 AM 30.4°F-0.9°C 18.5°F-7.5°C 61% 4.3 mph S6.9 kmh S 8.5 mph13.7 kmh 30.53 in1033.9 mb 0.00 in0.0 mm 0.00 in0.0 mm 0.00 in0.0 mm
09:50 AM 30.0°F-1.1°C 19.0°F-7.2°C 63% 3.6 mph SSW5.8 kmh SSW 5.4 mph8.7 kmh 30.53 in1033.9 mb 0.00 in0.0 mm 0.00 in0.0 mm 0.00 in0.0 mm
09:45 AM 29.1°F-1.6°C 18.9°F-7.3°C 65% 3.6 mph WSW5.8 kmh WSW 6.3 mph10.1 kmh 30.53 in1033.9 mb 0.00 in0.0 mm 0.00 in0.0 mm 0.00 in0.0 mm
09:40 AM 28.6°F-1.9°C 18.3°F-7.6°C 65% 4.3 mph SSW6.9 kmh SSW 7.4 mph11.9 kmh 30.53 in1033.9 mb 0.00 in0.0 mm 0.00 in0.0 mm 0.00 in0.0 mm
09:35 AM 28.0°F-2.2°C 18.5°F-7.5°C 67% 3.8 mph SW6.1 kmh SW 6.3 mph10.1 kmh 30.53 in1033.9 mb 0.00 in0.0 mm 0.00 in0.0 mm 0.00 in0.0 mm
09:30 AM 27.9°F-2.3°C 18.3°F-7.6°C 67% 4.9 mph WSW7.9 kmh WSW 8.5 mph13.7 kmh 30.54 in1034.2 mb 0.00 in0.0 mm 0.00 in0.0 mm 0.00 in0.0 mm
09:25 AM 27.9°F-2.3°C 19.0°F-7.2°C 69% 4.7 mph SW7.6 kmh SW 7.4 mph11.9 kmh 30.53 in1033.9 mb 0.00 in0.0 mm 0.00 in0.0 mm 0.00 in0.0 mm
09:20 AM 27.1°F-2.7°C 19.0°F-7.2°C 71% 5.1 mph SW8.2 kmh SW 7.4 mph11.9 kmh 30.53 in1033.9 mb 0.00 in0.0 mm 0.00 in0.0 mm 0.00 in0.0 mm
09:15 AM 26.8°F-2.9°C 18.7°F-7.4°C 71% 5.1 mph SSW8.2 kmh SSW 8.5 mph13.7 kmh 30.53 in1033.9 mb 0.00 in0.0 mm 0.00 in0.0 mm 0.00 in0.0 mm
09:10 AM 26.2°F-3.2°C 19.0°F-7.2°C 74% 4.9 mph SW7.9 kmh SW 8.5 mph13.7 kmh 30.53 in1033.9 mb 0.00 in0.0 mm 0.00 in0.0 mm 0.00 in0.0 mm
09:05 AM 25.3°F-3.7°C 18.5°F-7.5°C 75% 4.7 mph SSW7.6 kmh SSW 10.5 mph16.9 kmh 30.54 in1034.2 mb 0.00 in0.0 mm 0.00 in0.0 mm 0.00 in0.0 mm
09:00 AM 25.0°F-3.9°C 18.5°F-7.5°C 76% 2.9 mph SSW4.7 kmh SSW 6.3 mph10.1 kmh 30.53 in1033.9 mb 0.00 in0.0 mm 0.00 in0.0 mm 0.00 in0.0 mm
08:55 AM 24.6°F-4.1°C 18.5°F-7.5°C 77% 3.6 mph SW5.8 kmh SW 6.3 mph10.1 kmh 30.54 in1034.2 mb 0.00 in0.0 mm 0.00 in0.0 mm 0.00 in0.0 mm
08:50 AM 24.3°F-4.3°C 18.1°F-7.7°C 77% 3.4 mph WSW5.5 kmh WSW 5.4 mph8.7 kmh 30.54 in1034.2 mb 0.00 in0.0 mm 0.00 in0.0 mm 0.00 in0.0 mm
08:45 AM 24.1°F-4.4°C 18.1°F-7.7°C 78% 3.6 mph SW5.8 kmh SW 6.3 mph10.1 kmh 30.55 in1034.5 mb 0.00 in0.0 mm 0.00 in0.0 mm 0.00 in0.0 mm
08:40 AM 23.5°F-4.7°C 18.0°F-7.8°C 79% 4.3 mph SW6.9 kmh SW 7.4 mph11.9 kmh 30.55 in1034.5 mb 0.00 in0.0 mm 0.00 in0.0 mm 0.00 in0.0 mm
08:35 AM 23.2°F-4.9°C 18.1°F-7.7°C 81% 4.0 mph SW6.4 kmh SW 6.3 mph10.1 kmh 30.55 in1034.5 mb 0.00 in0.0 mm 0.00 in0.0 mm 0.00 in0.0 mm
08:30 AM 22.5°F-5.3°C 17.8°F-7.9°C 82% 3.1 mph SSW5.0 kmh SSW 6.3 mph10.1 kmh 30.55 in1034.5 mb 0.00 in0.0 mm 0.00 in0.0 mm 0.00 in0.0 mm
08:25 AM 21.7°F-5.7°C 17.4°F-8.1°C 83% 1.6 mph SW2.6 kmh SW 4.3 mph6.9 kmh 30.55 in1034.5 mb 0.00 in0.0 mm 0.00 in0.0 mm 0.00 in0.0 mm
08:20 AM 21.0°F-6.1°C 16.9°F-8.4°C 84% 1.3 mph SW2.1 kmh SW 4.3 mph6.9 kmh 30.55 in1034.5 mb 0.00 in0.0 mm 0.00 in0.0 mm 0.00 in0.0 mm
08:15 AM 20.5°F-6.4°C 16.3°F-8.7°C 84% 0.4 mph SW0.6 kmh SW 1.1 mph1.8 kmh 30.55 in1034.5 mb 0.00 in0.0 mm 0.00 in0.0 mm 0.00 in0.0 mm
08:10 AM 20.1°F-6.6°C 16.0°F-8.9°C 84% 0.4 mph SSE0.6 kmh SSE 1.1 mph1.8 kmh 30.55 in1034.5 mb 0.00 in0.0 mm 0.00 in0.0 mm 0.00 in0.0 mm
08:05 AM 19.9°F-6.7°C 16.2°F-8.8°C 85% 0.4 mph S0.6 kmh S 2.0 mph3.2 kmh 30.55 in1034.5 mb 0.00 in0.0 mm 0.00 in0.0 mm 0.00 in0.0 mm
08:00 AM 19.8°F-6.8°C 15.8°F-9.0°C 84% 1.1 mph SSW1.8 kmh SSW 2.0 mph3.2 kmh 30.55 in1034.5 mb 0.00 in0.0 mm 0.00 in0.0 mm 0.00 in0.0 mm
07:55 AM 19.8°F-6.8°C 15.8°F-9.0°C 84% 1.8 mph SSW2.9 kmh SSW 3.1 mph5.0 kmh 30.55 in1034.5 mb 0.00 in0.0 mm 0.00 in0.0 mm 0.00 in0.0 mm
07:50 AM 19.8°F-6.8°C 15.8°F-9.0°C 84% 0.9 mph S1.4 kmh S 2.0 mph3.2 kmh 30.55 in1034.5 mb 0.00 in0.0 mm 0.00 in0.0 mm 0.00 in0.0 mm
07:45 AM 19.6°F-6.9°C 15.6°F-9.1°C 84% 1.8 mph SSW2.9 kmh SSW 3.1 mph5.0 kmh 30.55 in1034.5 mb 0.00 in0.0 mm 0.00 in0.0 mm 0.00 in0.0 mm
07:40 AM 19.6°F-6.9°C 15.6°F-9.1°C 84% 1.8 mph SW2.9 kmh SW 4.3 mph6.9 kmh 30.55 in1034.5 mb 0.00 in0.0 mm 0.00 in0.0 mm 0.00 in0.0 mm
07:35 AM 19.6°F-6.9°C 15.6°F-9.1°C 84% 2.0 mph SW3.2 kmh SW 4.3 mph6.9 kmh 30.55 in1034.5 mb 0.00 in0.0 mm 0.00 in0.0 mm 0.00 in0.0 mm
07:30 AM 19.8°F-6.8°C 15.8°F-9.0°C 84% 2.5 mph SW4.0 kmh SW 4.3 mph6.9 kmh 30.54 in1034.2 mb 0.00 in0.0 mm 0.00 in0.0 mm 0.00 in0.0 mm
07:25 AM 19.8°F-6.8°C 15.8°F-9.0°C 84% 1.3 mph SW2.1 kmh SW 3.1 mph5.0 kmh 30.54 in1034.2 mb 0.00 in0.0 mm 0.00 in0.0 mm 0.00 in0.0 mm
07:20 AM 19.8°F-6.8°C 15.8°F-9.0°C 84% 1.6 mph WSW2.6 kmh WSW 4.3 mph6.9 kmh 30.54 in1034.2 mb 0.00 in0.0 mm 0.00 in0.0 mm 0.00 in0.0 mm
07:15 AM 19.8°F-6.8°C 15.8°F-9.0°C 84% 0.7 mph SSW1.1 kmh SSW 3.1 mph5.0 kmh 30.54 in1034.2 mb 0.00 in0.0 mm 0.00 in0.0 mm 0.00 in0.0 mm
07:10 AM 19.8°F-6.8°C 15.8°F-9.0°C 84% 1.8 mph SSW2.9 kmh SSW 4.3 mph6.9 kmh 30.54 in1034.2 mb 0.00 in0.0 mm 0.00 in0.0 mm 0.00 in0.0 mm
07:05 AM 19.9°F-6.7°C 16.0°F-8.9°C 84% 2.5 mph SW4.0 kmh SW 4.3 mph6.9 kmh 30.54 in1034.2 mb 0.00 in0.0 mm 0.00 in0.0 mm 0.00 in0.0 mm
07:00 AM 19.9°F-6.7°C 16.0°F-8.9°C 84% 1.6 mph SSW2.6 kmh SSW 3.1 mph5.0 kmh 30.54 in1034.2 mb 0.00 in0.0 mm 0.00 in0.0 mm 0.00 in0.0 mm
06:55 AM 19.9°F-6.7°C 16.0°F-8.9°C 84% 1.3 mph SSW2.1 kmh SSW 3.1 mph5.0 kmh 30.54 in1034.2 mb 0.00 in0.0 mm 0.00 in0.0 mm 0.00 in0.0 mm
06:50 AM 19.9°F-6.7°C 16.0°F-8.9°C 84% 1.6 mph S2.6 kmh S 4.3 mph6.9 kmh 30.54 in1034.2 mb 0.00 in0.0 mm 0.00 in0.0 mm 0.00 in0.0 mm
06:45 AM 20.1°F-6.6°C 16.0°F-8.9°C 84% 2.9 mph SSW4.7 kmh SSW 5.4 mph8.7 kmh 30.54 in1034.2 mb 0.00 in0.0 mm 0.00 in0.0 mm 0.00 in0.0 mm
06:40 AM 20.1°F-6.6°C 16.0°F-8.9°C 84% 2.2 mph SSW3.5 kmh SSW 4.3 mph6.9 kmh 30.54 in1034.2 mb 0.00 in0.0 mm 0.00 in0.0 mm 0.00 in0.0 mm
06:35 AM 20.3°F-6.5°C 16.2°F-8.8°C 84% 2.5 mph SW4.0 kmh SW 4.3 mph6.9 kmh 30.54 in1034.2 mb 0.00 in0.0 mm 0.00 in0.0 mm 0.00 in0.0 mm
06:30 AM 20.3°F-6.5°C 16.2°F-8.8°C 84% 2.7 mph SW4.3 kmh SW 4.3 mph6.9 kmh 30.54 in1034.2 mb 0.00 in0.0 mm 0.00 in0.0 mm 0.00 in0.0 mm
06:25 AM 20.3°F-6.5°C 16.2°F-8.8°C 84% 1.8 mph SSW2.9 kmh SSW 3.1 mph5.0 kmh 30.54 in1034.2 mb 0.00 in0.0 mm 0.00 in0.0 mm 0.00 in0.0 mm
06:20 AM 20.3°F-6.5°C 16.2°F-8.8°C 84% 2.5 mph SW4.0 kmh SW 6.3 mph10.1 kmh 30.54 in1034.2 mb 0.00 in0.0 mm 0.00 in0.0 mm 0.00 in0.0 mm
06:15 AM 20.3°F-6.5°C 16.5°F-8.6°C 85% 3.4 mph SW5.5 kmh SW 5.4 mph8.7 kmh 30.54 in1034.2 mb 0.00 in0.0 mm 0.00 in0.0 mm 0.00 in0.0 mm
06:10 AM 20.1°F-6.6°C 16.3°F-8.7°C 85% 3.1 mph SW5.0 kmh SW 4.3 mph6.9 kmh 30.54 in1034.2 mb 0.00 in0.0 mm 0.00 in0.0 mm 0.00 in0.0 mm
06:05 AM 20.1°F-6.6°C 16.3°F-8.7°C 85% 4.0 mph SW6.4 kmh SW 6.3 mph10.1 kmh 30.54 in1034.2 mb 0.00 in0.0 mm 0.00 in0.0 mm 0.00 in0.0 mm
06:00 AM 19.9°F-6.7°C 16.2°F-8.8°C 85% 3.1 mph SSW5.0 kmh SSW 5.4 mph8.7 kmh 30.53 in1033.9 mb 0.00 in0.0 mm 0.00 in0.0 mm 0.00 in0.0 mm
05:55 AM 19.8°F-6.8°C 16.0°F-8.9°C 85% 2.0 mph S3.2 kmh S 5.4 mph8.7 kmh 30.53 in1033.9 mb 0.00 in0.0 mm 0.00 in0.0 mm 0.00 in0.0 mm
05:50 AM 19.8°F-6.8°C 16.0°F-8.9°C 85% 2.0 mph SW3.2 kmh SW 4.3 mph6.9 kmh 30.53 in1033.9 mb 0.00 in0.0 mm 0.00 in0.0 mm 0.00 in0.0 mm
05:45 AM 19.6°F-6.9°C 16.2°F-8.8°C 86% 3.1 mph SW5.0 kmh SW 5.4 mph8.7 kmh 30.53 in1033.9 mb 0.00 in0.0 mm 0.00 in0.0 mm 0.00 in0.0 mm
05:40 AM 19.6°F-6.9°C 16.2°F-8.8°C 86% 1.6 mph SW2.6 kmh SW 3.1 mph5.0 kmh 30.53 in1033.9 mb 0.00 in0.0 mm 0.00 in0.0 mm 0.00 in0.0 mm
05:35 AM 19.4°F-7.0°C 16.0°F-8.9°C 86% 2.2 mph SW3.5 kmh SW 4.3 mph6.9 kmh 30.53 in1033.9 mb 0.00 in0.0 mm 0.00 in0.0 mm 0.00 in0.0 mm
05:30 AM 19.2°F-7.1°C 15.8°F-9.0°C 86% 3.1 mph SSW5.0 kmh SSW 5.4 mph8.7 kmh 30.53 in1033.9 mb 0.00 in0.0 mm 0.00 in0.0 mm 0.00 in0.0 mm
05:25 AM 19.2°F-7.1°C 15.8°F-9.0°C 86% 3.6 mph SW5.8 kmh SW 6.3 mph10.1 kmh 30.53 in1033.9 mb 0.00 in0.0 mm 0.00 in0.0 mm 0.00 in0.0 mm
05:20 AM 19.0°F-7.2°C 15.6°F-9.1°C 86% 3.8 mph SSW6.1 kmh SSW 5.4 mph8.7 kmh 30.53 in1033.9 mb 0.00 in0.0 mm 0.00 in0.0 mm 0.00 in0.0 mm
05:15 AM 19.0°F-7.2°C 15.6°F-9.1°C 86% 3.6 mph SW5.8 kmh SW 6.3 mph10.1 kmh 30.53 in1033.9 mb 0.00 in0.0 mm 0.00 in0.0 mm 0.00 in0.0 mm
05:10 AM 19.0°F-7.2°C 15.3°F-9.3°C 85% 3.1 mph SW5.0 kmh SW 6.3 mph10.1 kmh 30.53 in1033.9 mb 0.00 in0.0 mm 0.00 in0.0 mm 0.00 in0.0 mm
05:05 AM 18.9°F-7.3°C 15.1°F-9.4°C 85% 4.5 mph SW7.2 kmh SW 7.4 mph11.9 kmh 30.53 in1033.9 mb 0.00 in0.0 mm 0.00 in0.0 mm 0.00 in0.0 mm
05:00 AM 18.9°F-7.3°C 15.1°F-9.4°C 85% 2.2 mph SW3.5 kmh SW 5.4 mph8.7 kmh 30.53 in1033.9 mb 0.00 in0.0 mm 0.00 in0.0 mm 0.00 in0.0 mm
04:55 AM 18.9°F-7.3°C 15.1°F-9.4°C 85% 4.0 mph SW6.4 kmh SW 6.3 mph10.1 kmh 30.53 in1033.9 mb 0.00 in0.0 mm 0.00 in0.0 mm 0.00 in0.0 mm
04:50 AM 18.9°F-7.3°C 15.1°F-9.4°C 85% 3.6 mph SW5.8 kmh SW 6.3 mph10.1 kmh 30.53 in1033.9 mb 0.00 in0.0 mm 0.00 in0.0 mm 0.00 in0.0 mm
04:45 AM 19.0°F-7.2°C 15.3°F-9.3°C 85% 2.9 mph SW4.7 kmh SW 4.3 mph6.9 kmh 30.54 in1034.2 mb 0.00 in0.0 mm 0.00 in0.0 mm 0.00 in0.0 mm
04:40 AM 19.0°F-7.2°C 15.3°F-9.3°C 85% 1.8 mph SSW2.9 kmh SSW 3.1 mph5.0 kmh 30.54 in1034.2 mb 0.00 in0.0 mm 0.00 in0.0 mm 0.00 in0.0 mm
04:35 AM 19.0°F-7.2°C 15.3°F-9.3°C 85% 2.9 mph SW4.7 kmh SW 5.4 mph8.7 kmh 30.54 in1034.2 mb 0.00 in0.0 mm 0.00 in0.0 mm 0.00 in0.0 mm
04:30 AM 19.0°F-7.2°C 15.3°F-9.3°C 85% 2.7 mph SW4.3 kmh SW 4.3 mph6.9 kmh 30.54 in1034.2 mb 0.00 in0.0 mm 0.00 in0.0 mm 0.00 in0.0 mm
04:25 AM 19.0°F-7.2°C 15.3°F-9.3°C 85% 3.6 mph SW5.8 kmh SW 5.4 mph8.7 kmh 30.54 in1034.2 mb 0.00 in0.0 mm 0.00 in0.0 mm 0.00 in0.0 mm
04:20 AM 19.0°F-7.2°C 15.3°F-9.3°C 85% 2.7 mph SW4.3 kmh SW 5.4 mph8.7 kmh 30.54 in1034.2 mb 0.00 in0.0 mm 0.00 in0.0 mm 0.00 in0.0 mm
04:15 AM 19.0°F-7.2°C 15.3°F-9.3°C 85% 2.5 mph SSW4.0 kmh SSW 4.3 mph6.9 kmh 30.53 in1033.9 mb 0.00 in0.0 mm 0.00 in0.0 mm 0.00 in0.0 mm
04:10 AM 18.9°F-7.3°C 15.1°F-9.4°C 85% 2.0 mph SW3.2 kmh SW 3.1 mph5.0 kmh 30.54 in1034.2 mb 0.00 in0.0 mm 0.00 in0.0 mm 0.00 in0.0 mm
04:05 AM 18.9°F-7.3°C 14.9°F-9.5°C 84% 2.0 mph SW3.2 kmh SW 4.3 mph6.9 kmh 30.54 in1034.2 mb 0.00 in0.0 mm 0.00 in0.0 mm 0.00 in0.0 mm
04:00 AM 18.9°F-7.3°C 15.1°F-9.4°C 85% 1.3 mph SW2.1 kmh SW 3.1 mph5.0 kmh 30.54 in1034.2 mb 0.00 in0.0 mm 0.00 in0.0 mm 0.00 in0.0 mm
03:55 AM 18.9°F-7.3°C 14.9°F-9.5°C 84% 2.9 mph SW4.7 kmh SW 5.4 mph8.7 kmh 30.54 in1034.2 mb 0.00 in0.0 mm 0.00 in0.0 mm 0.00 in0.0 mm
03:50 AM 18.9°F-7.3°C 14.9°F-9.5°C 84% 1.3 mph SW2.1 kmh SW 3.1 mph5.0 kmh 30.55 in1034.5 mb 0.00 in0.0 mm 0.00 in0.0 mm 0.00 in0.0 mm
03:45 AM 18.9°F-7.3°C 14.5°F-9.7°C 83% 2.0 mph SW3.2 kmh SW 4.3 mph6.9 kmh 30.55 in1034.5 mb 0.00 in0.0 mm 0.00 in0.0 mm 0.00 in0.0 mm
03:40 AM 18.9°F-7.3°C 14.5°F-9.7°C 83% 2.0 mph SW3.2 kmh SW 4.3 mph6.9 kmh 30.55 in1034.5 mb 0.00 in0.0 mm 0.00 in0.0 mm 0.00 in0.0 mm
03:35 AM 19.0°F-7.2°C 14.7°F-9.6°C 83% 2.7 mph SW4.3 kmh SW 5.4 mph8.7 kmh 30.55 in1034.5 mb 0.00 in0.0 mm 0.00 in0.0 mm 0.00 in0.0 mm
03:30 AM 19.2°F-7.1°C 14.9°F-9.5°C 83% 3.4 mph SW5.5 kmh SW 5.4 mph8.7 kmh 30.55 in1034.5 mb 0.00 in0.0 mm 0.00 in0.0 mm 0.00 in0.0 mm
03:25 AM 19.4°F-7.0°C 14.7°F-9.6°C 82% 2.7 mph WSW4.3 kmh WSW 4.3 mph6.9 kmh 30.55 in1034.5 mb 0.00 in0.0 mm 0.00 in0.0 mm 0.00 in0.0 mm
03:20 AM 19.6°F-6.9°C 14.9°F-9.5°C 82% 3.4 mph SW5.5 kmh SW 7.4 mph11.9 kmh 30.55 in1034.5 mb 0.00 in0.0 mm 0.00 in0.0 mm 0.00 in0.0 mm
03:15 AM 19.6°F-6.9°C 14.9°F-9.5°C 82% 4.5 mph SW7.2 kmh SW 6.3 mph10.1 kmh 30.56 in1034.9 mb 0.00 in0.0 mm 0.00 in0.0 mm 0.00 in0.0 mm
03:10 AM 19.8°F-6.8°C 15.1°F-9.4°C 82% 4.5 mph SW7.2 kmh SW 6.3 mph10.1 kmh 30.56 in1034.9 mb 0.00 in0.0 mm 0.00 in0.0 mm 0.00 in0.0 mm
03:05 AM 19.8°F-6.8°C 15.1°F-9.4°C 82% 4.3 mph SW6.9 kmh SW 7.4 mph11.9 kmh 30.56 in1034.9 mb 0.00 in0.0 mm 0.00 in0.0 mm 0.00 in0.0 mm
03:00 AM 19.8°F-6.8°C 15.1°F-9.4°C 82% 4.0 mph SW6.4 kmh SW 7.4 mph11.9 kmh 30.56 in1034.9 mb 0.00 in0.0 mm 0.00 in0.0 mm 0.00 in0.0 mm
02:55 AM 19.8°F-6.8°C 15.1°F-9.4°C 82% 3.8 mph SW6.1 kmh SW 6.3 mph10.1 kmh 30.56 in1034.9 mb 0.00 in0.0 mm 0.00 in0.0 mm 0.00 in0.0 mm
02:50 AM 19.8°F-6.8°C 15.1°F-9.4°C 82% 4.9 mph SW7.9 kmh SW 7.4 mph11.9 kmh 30.56 in1034.9 mb 0.00 in0.0 mm 0.00 in0.0 mm 0.00 in0.0 mm
02:45 AM 19.8°F-6.8°C 14.9°F-9.5°C 81% 3.6 mph SW5.8 kmh SW 6.3 mph10.1 kmh 30.56 in1034.9 mb 0.00 in0.0 mm 0.00 in0.0 mm 0.00 in0.0 mm
02:40 AM 19.8°F-6.8°C 15.1°F-9.4°C 82% 5.4 mph SW8.7 kmh SW 7.4 mph11.9 kmh 30.56 in1034.9 mb 0.00 in0.0 mm 0.00 in0.0 mm 0.00 in0.0 mm
02:35 AM 19.8°F-6.8°C 14.9°F-9.5°C 81% 4.3 mph SW6.9 kmh SW 6.3 mph10.1 kmh 30.55 in1034.5 mb 0.00 in0.0 mm 0.00 in0.0 mm 0.00 in0.0 mm
02:30 AM 19.6°F-6.9°C 14.7°F-9.6°C 81% 4.3 mph SW6.9 kmh SW 6.3 mph10.1 kmh 30.56 in1034.9 mb 0.00 in0.0 mm 0.00 in0.0 mm 0.00 in0.0 mm
02:25 AM 19.6°F-6.9°C 14.7°F-9.6°C 81% 3.4 mph SW5.5 kmh SW 5.4 mph8.7 kmh 30.56 in1034.9 mb 0.00 in0.0 mm 0.00 in0.0 mm 0.00 in0.0 mm
02:20 AM 19.8°F-6.8°C 14.9°F-9.5°C 81% 4.0 mph SW6.4 kmh SW 6.3 mph10.1 kmh 30.56 in1034.9 mb 0.00 in0.0 mm 0.00 in0.0 mm 0.00 in0.0 mm
02:15 AM 19.8°F-6.8°C 14.5°F-9.7°C 80% 1.3 mph SSW2.1 kmh SSW 4.3 mph6.9 kmh 30.56 in1034.9 mb 0.00 in0.0 mm 0.00 in0.0 mm 0.00 in0.0 mm
02:10 AM 19.9°F-6.7°C 14.7°F-9.6°C 80% 2.2 mph S3.5 kmh S 4.3 mph6.9 kmh 30.56 in1034.9 mb 0.00 in0.0 mm 0.00 in0.0 mm 0.00 in0.0 mm
02:05 AM 19.9°F-6.7°C 14.7°F-9.6°C 80% 3.1 mph WSW5.0 kmh WSW 6.3 mph10.1 kmh 30.56 in1034.9 mb 0.00 in0.0 mm 0.00 in0.0 mm 0.00 in0.0 mm
02:00 AM 19.9°F-6.7°C 14.7°F-9.6°C 80% 4.0 mph SW6.4 kmh SW 6.3 mph10.1 kmh 30.56 in1034.9 mb 0.00 in0.0 mm 0.00 in0.0 mm 0.00 in0.0 mm
01:55 AM 20.1°F-6.6°C 14.9°F-9.5°C 80% 3.6 mph SW5.8 kmh SW 7.4 mph11.9 kmh 30.56 in1034.9 mb 0.00 in0.0 mm 0.00 in0.0 mm 0.00 in0.0 mm
01:50 AM 20.1°F-6.6°C 14.9°F-9.5°C 80% 3.4 mph WSW5.5 kmh WSW 6.3 mph10.1 kmh 30.56 in1034.9 mb 0.00 in0.0 mm 0.00 in0.0 mm 0.00 in0.0 mm
01:45 AM 20.1°F-6.6°C 14.7°F-9.6°C 79% 4.0 mph SW6.4 kmh SW 6.3 mph10.1 kmh 30.56 in1034.9 mb 0.00 in0.0 mm 0.00 in0.0 mm 0.00 in0.0 mm
01:40 AM 20.5°F-6.4°C 15.1°F-9.4°C 79% 2.9 mph SW4.7 kmh SW 5.4 mph8.7 kmh 30.56 in1034.9 mb 0.00 in0.0 mm 0.00 in0.0 mm 0.00 in0.0 mm
01:35 AM 20.5°F-6.4°C 15.1°F-9.4°C 79% 4.0 mph WSW6.4 kmh WSW 7.4 mph11.9 kmh 30.56 in1034.9 mb 0.00 in0.0 mm 0.00 in0.0 mm 0.00 in0.0 mm
01:30 AM 20.7°F-6.3°C 14.9°F-9.5°C 78% 4.5 mph SW7.2 kmh SW 8.5 mph13.7 kmh 30.56 in1034.9 mb 0.00 in0.0 mm 0.00 in0.0 mm 0.00 in0.0 mm
01:25 AM 20.8°F-6.2°C 15.1°F-9.4°C 78% 4.3 mph SW6.9 kmh SW 6.3 mph10.1 kmh 30.56 in1034.9 mb 0.00 in0.0 mm 0.00 in0.0 mm 0.00 in0.0 mm
01:20 AM 20.8°F-6.2°C 14.7°F-9.6°C 77% 4.3 mph SW6.9 kmh SW 6.3 mph10.1 kmh 30.56 in1034.9 mb 0.00 in0.0 mm 0.00 in0.0 mm 0.00 in0.0 mm
01:15 AM 21.0°F-6.1°C 14.9°F-9.5°C 77% 4.3 mph SW6.9 kmh SW 6.3 mph10.1 kmh 30.56 in1034.9 mb 0.00 in0.0 mm 0.00 in0.0 mm 0.00 in0.0 mm
01:10 AM 21.2°F-6.0°C 15.1°F-9.4°C 77% 4.3 mph SW6.9 kmh SW 7.4 mph11.9 kmh 30.56 in1034.9 mb 0.00 in0.0 mm 0.00 in0.0 mm 0.00 in0.0 mm
01:05 AM 21.2°F-6.0°C 15.1°F-9.4°C 77% 4.3 mph SW6.9 kmh SW 7.4 mph11.9 kmh 30.56 in1034.9 mb 0.00 in0.0 mm 0.00 in0.0 mm 0.00 in0.0 mm
01:00 AM 21.2°F-6.0°C 15.1°F-9.4°C 77% 5.8 mph SW9.3 kmh SW 9.6 mph15.4 kmh 30.56 in1034.9 mb 0.00 in0.0 mm 0.00 in0.0 mm 0.00 in0.0 mm
12:55 AM 21.0°F-6.1°C 14.7°F-9.6°C 76% 4.5 mph SW7.2 kmh SW 7.4 mph11.9 kmh 30.56 in1034.9 mb 0.00 in0.0 mm 0.00 in0.0 mm 0.00 in0.0 mm
12:49 AM 21.0°F-6.1°C 14.7°F-9.6°C 76% 4.9 mph SW7.9 kmh SW 6.3 mph10.1 kmh 30.56 in1034.9 mb 0.00 in0.0 mm 0.00 in0.0 mm 0.00 in0.0 mm
12:44 AM 21.0°F-6.1°C 14.7°F-9.6°C 76% 4.7 mph SSW7.6 kmh SSW 7.4 mph11.9 kmh 30.56 in1034.9 mb 0.00 in0.0 mm 0.00 in0.0 mm 0.00 in0.0 mm
12:39 AM 21.0°F-6.1°C 14.4°F-9.8°C 75% 2.9 mph SW4.7 kmh SW 5.4 mph8.7 kmh 30.56 in1034.9 mb 0.00 in0.0 mm 0.00 in0.0 mm 0.00 in0.0 mm
12:34 AM 21.0°F-6.1°C 14.4°F-9.8°C 75% 3.1 mph SW5.0 kmh SW 4.3 mph6.9 kmh 30.56 in1034.9 mb 0.00 in0.0 mm 0.00 in0.0 mm 0.00 in0.0 mm
12:29 AM 21.2°F-6.0°C 14.2°F-9.9°C 74% 2.7 mph SW4.3 kmh SW 4.3 mph6.9 kmh 30.56 in1034.9 mb 0.00 in0.0 mm 0.00 in0.0 mm 0.00 in0.0 mm
12:24 AM 21.4°F-5.9°C 14.4°F-9.8°C 74% 1.6 mph S2.6 kmh S 5.4 mph8.7 kmh 30.56 in1034.9 mb 0.00 in0.0 mm 0.00 in0.0 mm 0.00 in0.0 mm
12:19 AM 21.4°F-5.9°C 14.4°F-9.8°C 74% 2.7 mph SW4.3 kmh SW 4.3 mph6.9 kmh 30.56 in1034.9 mb 0.00 in0.0 mm 0.00 in0.0 mm 0.00 in0.0 mm
12:14 AM 21.4°F-5.9°C 14.0°F-10.0°C 73% 3.4 mph SSW5.5 kmh SSW 4.3 mph6.9 kmh 30.56 in1034.9 mb 0.00 in0.0 mm 0.00 in0.0 mm 0.00 in0.0 mm
12:09 AM 21.6°F-5.8°C 14.2°F-9.9°C 73% 1.8 mph SW2.9 kmh SW 3.1 mph5.0 kmh 30.56 in1034.9 mb 0.00 in0.0 mm 0.00 in0.0 mm 0.00 in0.0 mm
12:04 AM 21.6°F-5.8°C 14.2°F-9.9°C 73% 2.5 mph SW4.0 kmh SW 3.1 mph5.0 kmh 30.56 in1034.9 mb 0.00 in0.0 mm 0.00 in0.0 mm 0.00 in0.0 mm